sensor_id;sensor_type;location;lat;lon;timestamp;P1;durP1;ratioP1;P2;durP2;ratioP2
47896;SDS011;39629;51.400;5.494;2023-08-30T00:03:36;4.85;;;2.53;;
47896;SDS011;39629;51.400;5.494;2023-08-30T00:08:39;4.38;;;2.92;;
47896;SDS011;39629;51.400;5.494;2023-08-30T00:13:41;4.80;;;2.45;;
47896;SDS011;39629;51.400;5.494;2023-08-30T00:18:42;4.88;;;2.75;;
47896;SDS011;39629;51.400;5.494;2023-08-30T00:23:45;5.43;;;3.20;;
47896;SDS011;39629;51.400;5.494;2023-08-30T00:28:47;4.50;;;2.72;;
47896;SDS011;39629;51.400;5.494;2023-08-30T00:33:49;5.43;;;2.95;;
47896;SDS011;39629;51.400;5.494;2023-08-30T00:38:51;4.60;;;2.78;;
47896;SDS011;39629;51.400;5.494;2023-08-30T00:43:53;4.50;;;2.63;;
47896;SDS011;39629;51.400;5.494;2023-08-30T00:48:55;6.10;;;3.05;;
47896;SDS011;39629;51.400;5.494;2023-08-30T00:53:59;4.75;;;2.83;;
47896;SDS011;39629;51.400;5.494;2023-08-30T00:59:02;5.95;;;3.22;;
47896;SDS011;39629;51.400;5.494;2023-08-30T01:04:05;6.78;;;3.50;;
47896;SDS011;39629;51.400;5.494;2023-08-30T01:09:09;6.05;;;3.13;;
47896;SDS011;39629;51.400;5.494;2023-08-30T01:14:12;4.63;;;2.33;;
47896;SDS011;39629;51.400;5.494;2023-08-30T01:19:29;6.35;;;2.85;;
47896;SDS011;39629;51.400;5.494;2023-08-30T01:24:44;8.95;;;3.25;;
47896;SDS011;39629;51.400;5.494;2023-08-30T01:29:51;5.10;;;3.00;;
47896;SDS011;39629;51.400;5.494;2023-08-30T01:34:55;4.40;;;2.53;;
47896;SDS011;39629;51.400;5.494;2023-08-30T01:39:57;5.28;;;2.78;;
47896;SDS011;39629;51.400;5.494;2023-08-30T01:45:01;5.10;;;2.55;;
47896;SDS011;39629;51.400;5.494;2023-08-30T01:50:05;4.60;;;2.17;;
47896;SDS011;39629;51.400;5.494;2023-08-30T01:55:08;2.92;;;1.95;;
47896;SDS011;39629;51.400;5.494;2023-08-30T02:00:13;4.13;;;2.35;;
47896;SDS011;39629;51.400;5.494;2023-08-30T02:05:18;5.63;;;2.47;;
47896;SDS011;39629;51.400;5.494;2023-08-30T02:10:21;4.93;;;2.58;;
47896;SDS011;39629;51.400;5.494;2023-08-30T02:15:27;3.85;;;1.63;;
47896;SDS011;39629;51.400;5.494;2023-08-30T02:20:31;5.13;;;2.70;;
47896;SDS011;39629;51.400;5.494;2023-08-30T02:25:33;2.85;;;1.80;;
47896;SDS011;39629;51.400;5.494;2023-08-30T02:30:36;2.90;;;1.73;;
47896;SDS011;39629;51.400;5.494;2023-08-30T02:35:37;5.32;;;2.08;;
47896;SDS011;39629;51.400;5.494;2023-08-30T02:40:39;4.32;;;2.10;;
47896;SDS011;39629;51.400;5.494;2023-08-30T02:45:43;5.20;;;2.15;;
47896;SDS011;39629;51.400;5.494;2023-08-30T02:50:45;4.07;;;2.10;;
47896;SDS011;39629;51.400;5.494;2023-08-30T02:55:47;5.80;;;3.17;;
47896;SDS011;39629;51.400;5.494;2023-08-30T03:00:50;7.70;;;3.15;;
47896;SDS011;39629;51.400;5.494;2023-08-30T03:05:52;5.07;;;3.10;;
47896;SDS011;39629;51.400;5.494;2023-08-30T03:10:54;6.97;;;4.35;;
47896;SDS011;39629;51.400;5.494;2023-08-30T03:15:57;9.50;;;4.57;;
47896;SDS011;39629;51.400;5.494;2023-08-30T03:21:01;6.78;;;3.85;;
47896;SDS011;39629;51.400;5.494;2023-08-30T03:26:10;9.48;;;4.68;;
47896;SDS011;39629;51.400;5.494;2023-08-30T03:31:14;9.68;;;5.07;;
47896;SDS011;39629;51.400;5.494;2023-08-30T03:36:17;12.27;;;5.63;;
47896;SDS011;39629;51.400;5.494;2023-08-30T03:41:19;8.20;;;5.05;;
47896;SDS011;39629;51.400;5.494;2023-08-30T03:46:22;9.65;;;4.40;;
47896;SDS011;39629;51.400;5.494;2023-08-30T03:51:24;12.25;;;5.55;;
47896;SDS011;39629;51.400;5.494;2023-08-30T03:56:25;8.05;;;4.05;;
47896;SDS011;39629;51.400;5.494;2023-08-30T04:01:28;9.00;;;4.82;;
47896;SDS011;39629;51.400;5.494;2023-08-30T04:06:30;10.05;;;4.25;;
47896;SDS011;39629;51.400;5.494;2023-08-30T04:11:31;8.57;;;4.65;;
47896;SDS011;39629;51.400;5.494;2023-08-30T04:16:35;11.00;;;4.65;;
47896;SDS011;39629;51.400;5.494;2023-08-30T04:21:36;9.80;;;5.60;;
47896;SDS011;39629;51.400;5.494;2023-08-30T04:26:38;10.30;;;5.70;;
47896;SDS011;39629;51.400;5.494;2023-08-30T04:31:42;8.02;;;4.57;;
47896;SDS011;39629;51.400;5.494;2023-08-30T04:36:44;9.50;;;5.55;;
47896;SDS011;39629;51.400;5.494;2023-08-30T04:41:47;8.40;;;4.10;;
47896;SDS011;39629;51.400;5.494;2023-08-30T04:46:50;9.68;;;5.00;;
47896;SDS011;39629;51.400;5.494;2023-08-30T04:51:54;8.77;;;5.03;;
47896;SDS011;39629;51.400;5.494;2023-08-30T04:56:56;11.80;;;6.15;;
47896;SDS011;39629;51.400;5.494;2023-08-30T05:01:59;8.52;;;4.25;;
47896;SDS011;39629;51.400;5.494;2023-08-30T05:07:02;10.43;;;5.32;;
47896;SDS011;39629;51.400;5.494;2023-08-30T05:12:05;10.43;;;5.55;;
47896;SDS011;39629;51.400;5.494;2023-08-30T05:17:10;10.82;;;6.00;;
47896;SDS011;39629;51.400;5.494;2023-08-30T05:22:11;9.65;;;5.05;;
47896;SDS011;39629;51.400;5.494;2023-08-30T05:27:13;11.73;;;5.72;;
47896;SDS011;39629;51.400;5.494;2023-08-30T05:32:16;9.32;;;5.18;;
47896;SDS011;39629;51.400;5.494;2023-08-30T05:37:41;9.77;;;5.38;;
47896;SDS011;39629;51.400;5.494;2023-08-30T05:43:12;8.90;;;5.28;;
47896;SDS011;39629;51.400;5.494;2023-08-30T05:48:15;12.27;;;5.57;;
47896;SDS011;39629;51.400;5.494;2023-08-30T05:53:16;9.77;;;4.78;;
47896;SDS011;39629;51.400;5.494;2023-08-30T05:58:18;11.68;;;5.63;;
47896;SDS011;39629;51.400;5.494;2023-08-30T06:03:21;13.70;;;6.20;;
47896;SDS011;39629;51.400;5.494;2023-08-30T06:08:22;12.55;;;6.47;;
47896;SDS011;39629;51.400;5.494;2023-08-30T06:13:24;10.90;;;5.70;;
47896;SDS011;39629;51.400;5.494;2023-08-30T06:18:29;11.35;;;5.47;;
47896;SDS011;39629;51.400;5.494;2023-08-30T06:23:32;13.23;;;6.72;;
47896;SDS011;39629;51.400;5.494;2023-08-30T06:28:34;11.98;;;5.78;;
47896;SDS011;39629;51.400;5.494;2023-08-30T06:33:37;19.23;;;7.13;;
47896;SDS011;39629;51.400;5.494;2023-08-30T06:38:39;12.75;;;6.60;;
47896;SDS011;39629;51.400;5.494;2023-08-30T06:43:40;12.00;;;5.97;;
47896;SDS011;39629;51.400;5.494;2023-08-30T06:48:43;13.02;;;6.07;;
47896;SDS011;39629;51.400;5.494;2023-08-30T06:53:45;9.68;;;4.60;;
47896;SDS011;39629;51.400;5.494;2023-08-30T06:58:47;9.48;;;5.40;;
47896;SDS011;39629;51.400;5.494;2023-08-30T07:03:50;9.77;;;5.07;;
47896;SDS011;39629;51.400;5.494;2023-08-30T07:08:51;7.35;;;3.75;;
47896;SDS011;39629;51.400;5.494;2023-08-30T07:13:53;9.88;;;4.65;;
47896;SDS011;39629;51.400;5.494;2023-08-30T07:18:55;7.03;;;4.03;;
47896;SDS011;39629;51.400;5.494;2023-08-30T07:23:57;6.60;;;3.75;;
47896;SDS011;39629;51.400;5.494;2023-08-30T07:28:59;6.15;;;3.33;;
47896;SDS011;39629;51.400;5.494;2023-08-30T07:34:02;8.02;;;3.60;;
47896;SDS011;39629;51.400;5.494;2023-08-30T07:39:03;5.45;;;2.72;;
47896;SDS011;39629;51.400;5.494;2023-08-30T07:44:05;5.22;;;2.65;;
47896;SDS011;39629;51.400;5.494;2023-08-30T07:49:08;3.83;;;2.40;;
47896;SDS011;39629;51.400;5.494;2023-08-30T07:54:09;9.18;;;2.50;;
47896;SDS011;39629;51.400;5.494;2023-08-30T07:59:12;4.20;;;2.50;;
47896;SDS011;39629;51.400;5.494;2023-08-30T08:04:15;4.55;;;2.20;;
47896;SDS011;39629;51.400;5.494;2023-08-30T08:09:17;5.07;;;2.38;;
47896;SDS011;39629;51.400;5.494;2023-08-30T08:14:18;4.57;;;2.28;;
47896;SDS011;39629;51.400;5.494;2023-08-30T08:19:21;4.28;;;2.17;;
47896;SDS011;39629;51.400;5.494;2023-08-30T08:24:23;3.30;;;2.00;;
47896;SDS011;39629;51.400;5.494;2023-08-30T08:29:26;3.83;;;1.88;;
47896;SDS011;39629;51.400;5.494;2023-08-30T08:34:29;6.82;;;2.40;;
47896;SDS011;39629;51.400;5.494;2023-08-30T08:39:31;4.63;;;1.92;;
47896;SDS011;39629;51.400;5.494;2023-08-30T08:44:32;5.00;;;2.00;;
47896;SDS011;39629;51.400;5.494;2023-08-30T08:49:38;5.90;;;2.00;;
47896;SDS011;39629;51.400;5.494;2023-08-30T08:54:40;3.63;;;2.05;;
47896;SDS011;39629;51.400;5.494;2023-08-30T08:59:44;3.67;;;2.00;;
47896;SDS011;39629;51.400;5.494;2023-08-30T09:04:47;3.85;;;1.95;;
47896;SDS011;39629;51.400;5.494;2023-08-30T09:09:49;4.32;;;1.85;;
47896;SDS011;39629;51.400;5.494;2023-08-30T09:14:52;3.08;;;2.00;;
47896;SDS011;39629;51.400;5.494;2023-08-30T09:20:05;3.92;;;1.83;;
47896;SDS011;39629;51.400;5.494;2023-08-30T09:25:08;4.18;;;2.05;;
47896;SDS011;39629;51.400;5.494;2023-08-30T09:30:12;2.53;;;1.60;;
47896;SDS011;39629;51.400;5.494;2023-08-30T09:35:15;3.22;;;2.13;;
47896;SDS011;39629;51.400;5.494;2023-08-30T09:40:18;3.28;;;2.17;;
47896;SDS011;39629;51.400;5.494;2023-08-30T09:45:21;2.88;;;1.80;;
47896;SDS011;39629;51.400;5.494;2023-08-30T09:50:25;3.03;;;1.90;;
47896;SDS011;39629;51.400;5.494;2023-08-30T09:55:27;2.73;;;1.73;;
47896;SDS011;39629;51.400;5.494;2023-08-30T10:00:30;4.95;;;2.08;;
47896;SDS011;39629;51.400;5.494;2023-08-30T10:05:33;4.10;;;2.30;;
47896;SDS011;39629;51.400;5.494;2023-08-30T10:10:36;5.35;;;2.33;;
47896;SDS011;39629;51.400;5.494;2023-08-30T10:15:40;3.47;;;2.10;;
47896;SDS011;39629;51.400;5.494;2023-08-30T10:20:48;3.33;;;2.35;;
47896;SDS011;39629;51.400;5.494;2023-08-30T10:25:54;5.50;;;2.22;;
47896;SDS011;39629;51.400;5.494;2023-08-30T10:30:57;4.10;;;2.40;;
47896;SDS011;39629;51.400;5.494;2023-08-30T10:36:04;4.70;;;2.50;;
47896;SDS011;39629;51.400;5.494;2023-08-30T10:41:07;4.32;;;2.55;;
47896;SDS011;39629;51.400;5.494;2023-08-30T10:46:09;3.95;;;2.70;;
47896;SDS011;39629;51.400;5.494;2023-08-30T10:51:34;4.75;;;2.47;;
47896;SDS011;39629;51.400;5.494;2023-08-30T10:56:45;4.90;;;2.55;;
47896;SDS011;39629;51.400;5.494;2023-08-30T11:01:49;4.63;;;2.63;;
47896;SDS011;39629;51.400;5.494;2023-08-30T11:06:54;4.32;;;2.47;;
47896;SDS011;39629;51.400;5.494;2023-08-30T11:11:56;3.80;;;2.50;;
47896;SDS011;39629;51.400;5.494;2023-08-30T11:16:58;4.47;;;3.00;;
47896;SDS011;39629;51.400;5.494;2023-08-30T11:22:01;4.82;;;2.83;;
47896;SDS011;39629;51.400;5.494;2023-08-30T11:27:03;4.18;;;2.83;;
47896;SDS011;39629;51.400;5.494;2023-08-30T11:32:06;6.10;;;2.80;;
47896;SDS011;39629;51.400;5.494;2023-08-30T11:37:11;3.75;;;2.50;;
47896;SDS011;39629;51.400;5.494;2023-08-30T11:42:13;5.07;;;2.55;;
47896;SDS011;39629;51.400;5.494;2023-08-30T11:47:17;2.90;;;2.10;;
47896;SDS011;39629;51.400;5.494;2023-08-30T11:52:21;3.75;;;2.25;;
47896;SDS011;39629;51.400;5.494;2023-08-30T11:57:24;4.40;;;2.50;;
47896;SDS011;39629;51.400;5.494;2023-08-30T12:02:27;3.72;;;2.05;;
47896;SDS011;39629;51.400;5.494;2023-08-30T12:07:31;3.63;;;1.85;;
47896;SDS011;39629;51.400;5.494;2023-08-30T12:12:33;3.60;;;2.08;;
47896;SDS011;39629;51.400;5.494;2023-08-30T12:17:36;3.70;;;1.98;;
47896;SDS011;39629;51.400;5.494;2023-08-30T12:22:39;6.10;;;1.95;;
47896;SDS011;39629;51.400;5.494;2023-08-30T12:27:41;2.63;;;1.60;;
47896;SDS011;39629;51.400;5.494;2023-08-30T12:32:43;6.72;;;1.63;;
47896;SDS011;39629;51.400;5.494;2023-08-30T12:37:46;3.63;;;1.33;;
47896;SDS011;39629;51.400;5.494;2023-08-30T12:42:48;3.00;;;1.30;;
47896;SDS011;39629;51.400;5.494;2023-08-30T12:47:50;3.78;;;1.05;;
47896;SDS011;39629;51.400;5.494;2023-08-30T12:52:53;4.00;;;1.20;;
47896;SDS011;39629;51.400;5.494;2023-08-30T12:57:57;4.47;;;1.52;;
47896;SDS011;39629;51.400;5.494;2023-08-30T13:02:59;2.88;;;1.30;;
47896;SDS011;39629;51.400;5.494;2023-08-30T13:08:03;5.85;;;1.30;;
47896;SDS011;39629;51.400;5.494;2023-08-30T13:13:05;3.88;;;1.17;;
47896;SDS011;39629;51.400;5.494;2023-08-30T13:18:07;3.90;;;1.08;;
47896;SDS011;39629;51.400;5.494;2023-08-30T13:23:10;4.20;;;0.90;;
47896;SDS011;39629;51.400;5.494;2023-08-30T13:33:15;3.17;;;1.10;;
47896;SDS011;39629;51.400;5.494;2023-08-30T13:38:18;4.70;;;1.10;;
47896;SDS011;39629;51.400;5.494;2023-08-30T13:43:20;3.75;;;0.85;;
47896;SDS011;39629;51.400;5.494;2023-08-30T13:48:22;5.03;;;1.00;;
47896;SDS011;39629;51.400;5.494;2023-08-30T13:53:25;1.80;;;0.90;;
47896;SDS011;39629;51.400;5.494;2023-08-30T13:58:28;4.18;;;0.82;;
47896;SDS011;39629;51.400;5.494;2023-08-30T14:03:30;4.20;;;0.80;;
47896;SDS011;39629;51.400;5.494;2023-08-30T14:08:34;4.45;;;1.30;;
47896;SDS011;39629;51.400;5.494;2023-08-30T14:13:36;3.53;;;1.10;;
47896;SDS011;39629;51.400;5.494;2023-08-30T14:18:38;3.22;;;0.80;;
47896;SDS011;39629;51.400;5.494;2023-08-30T14:23:41;2.85;;;0.82;;
47896;SDS011;39629;51.400;5.494;2023-08-30T14:28:43;3.17;;;0.73;;
47896;SDS011;39629;51.400;5.494;2023-08-30T14:33:45;3.03;;;0.80;;
47896;SDS011;39629;51.400;5.494;2023-08-30T14:38:48;3.63;;;0.85;;
47896;SDS011;39629;51.400;5.494;2023-08-30T14:48:52;2.22;;;0.80;;
47896;SDS011;39629;51.400;5.494;2023-08-30T14:53:55;3.88;;;0.85;;
47896;SDS011;39629;51.400;5.494;2023-08-30T15:03:58;6.60;;;0.80;;
47896;SDS011;39629;51.400;5.494;2023-08-30T15:09:01;2.85;;;0.45;;
47896;SDS011;39629;51.400;5.494;2023-08-30T15:14:04;2.15;;;0.60;;
47896;SDS011;39629;51.400;5.494;2023-08-30T15:19:06;2.17;;;0.63;;
47896;SDS011;39629;51.400;5.494;2023-08-30T15:24:09;1.73;;;0.55;;
47896;SDS011;39629;51.400;5.494;2023-08-30T15:29:12;2.47;;;0.50;;
47896;SDS011;39629;51.400;5.494;2023-08-30T15:34:14;1.80;;;0.50;;
47896;SDS011;39629;51.400;5.494;2023-08-30T15:39:17;2.03;;;0.50;;
47896;SDS011;39629;51.400;5.494;2023-08-30T15:44:19;2.03;;;0.50;;
47896;SDS011;39629;51.400;5.494;2023-08-30T15:49:21;1.98;;;0.50;;
47896;SDS011;39629;51.400;5.494;2023-08-30T15:54:24;3.10;;;0.60;;
47896;SDS011;39629;51.400;5.494;2023-08-30T15:59:26;7.05;;;2.45;;
47896;SDS011;39629;51.400;5.494;2023-08-30T16:04:28;3.00;;;0.60;;
47896;SDS011;39629;51.400;5.494;2023-08-30T16:09:31;2.03;;;0.52;;
47896;SDS011;39629;51.400;5.494;2023-08-30T16:14:32;3.17;;;0.60;;
47896;SDS011;39629;51.400;5.494;2023-08-30T16:19:34;1.55;;;0.40;;
47896;SDS011;39629;51.400;5.494;2023-08-30T16:24:37;2.35;;;0.60;;
47896;SDS011;39629;51.400;5.494;2023-08-30T16:29:39;2.97;;;0.60;;
47896;SDS011;39629;51.400;5.494;2023-08-30T16:34:41;2.70;;;0.50;;
47896;SDS011;39629;51.400;5.494;2023-08-30T16:39:46;2.60;;;0.50;;
47896;SDS011;39629;51.400;5.494;2023-08-30T16:44:47;3.13;;;0.43;;
47896;SDS011;39629;51.400;5.494;2023-08-30T16:49:49;2.53;;;0.50;;
47896;SDS011;39629;51.400;5.494;2023-08-30T16:54:52;2.53;;;0.45;;
47896;SDS011;39629;51.400;5.494;2023-08-30T16:59:54;1.73;;;0.40;;
47896;SDS011;39629;51.400;5.494;2023-08-30T17:04:56;3.35;;;0.60;;
47896;SDS011;39629;51.400;5.494;2023-08-30T17:09:59;2.55;;;0.52;;
47896;SDS011;39629;51.400;5.494;2023-08-30T17:15:01;3.00;;;0.57;;
47896;SDS011;39629;51.400;5.494;2023-08-30T17:20:03;1.63;;;0.57;;
47896;SDS011;39629;51.400;5.494;2023-08-30T17:25:07;1.70;;;0.60;;
47896;SDS011;39629;51.400;5.494;2023-08-30T17:30:10;4.65;;;0.65;;
47896;SDS011;39629;51.400;5.494;2023-08-30T17:35:13;4.75;;;0.60;;
47896;SDS011;39629;51.400;5.494;2023-08-30T17:40:17;2.60;;;0.50;;
47896;SDS011;39629;51.400;5.494;2023-08-30T17:45:20;3.22;;;0.50;;
47896;SDS011;39629;51.400;5.494;2023-08-30T17:50:22;3.63;;;1.02;;
47896;SDS011;39629;51.400;5.494;2023-08-30T17:55:25;2.50;;;0.45;;
47896;SDS011;39629;51.400;5.494;2023-08-30T18:00:26;3.80;;;0.52;;
47896;SDS011;39629;51.400;5.494;2023-08-30T18:05:28;3.45;;;0.50;;
47896;SDS011;39629;51.400;5.494;2023-08-30T18:10:31;1.13;;;0.43;;
47896;SDS011;39629;51.400;5.494;2023-08-30T18:15:35;2.38;;;0.52;;
47896;SDS011;39629;51.400;5.494;2023-08-30T18:20:37;1.70;;;0.40;;
47896;SDS011;39629;51.400;5.494;2023-08-30T18:25:39;1.30;;;0.50;;
47896;SDS011;39629;51.400;5.494;2023-08-30T18:30:41;3.58;;;0.50;;
47896;SDS011;39629;51.400;5.494;2023-08-30T18:35:43;2.60;;;0.63;;
47896;SDS011;39629;51.400;5.494;2023-08-30T18:40:46;2.25;;;0.60;;
47896;SDS011;39629;51.400;5.494;2023-08-30T18:45:48;5.05;;;0.60;;
47896;SDS011;39629;51.400;5.494;2023-08-30T18:50:49;2.70;;;0.75;;
47896;SDS011;39629;51.400;5.494;2023-08-30T18:55:53;2.63;;;0.80;;
47896;SDS011;39629;51.400;5.494;2023-08-30T19:00:54;5.15;;;0.80;;
47896;SDS011;39629;51.400;5.494;2023-08-30T19:05:56;4.15;;;0.93;;
47896;SDS011;39629;51.400;5.494;2023-08-30T19:10:59;1.95;;;0.60;;
47896;SDS011;39629;51.400;5.494;2023-08-30T19:16:01;4.03;;;0.80;;
47896;SDS011;39629;51.400;5.494;2023-08-30T19:21:03;2.08;;;0.80;;
47896;SDS011;39629;51.400;5.494;2023-08-30T19:26:07;2.88;;;0.70;;
47896;SDS011;39629;51.400;5.494;2023-08-30T19:31:08;4.25;;;0.90;;
47896;SDS011;39629;51.400;5.494;2023-08-30T19:36:10;3.90;;;0.70;;
47896;SDS011;39629;51.400;5.494;2023-08-30T19:41:15;4.60;;;0.90;;
47896;SDS011;39629;51.400;5.494;2023-08-30T19:46:17;3.30;;;0.90;;
47896;SDS011;39629;51.400;5.494;2023-08-30T19:51:18;1.95;;;0.80;;
47896;SDS011;39629;51.400;5.494;2023-08-30T19:56:23;4.10;;;1.30;;
47896;SDS011;39629;51.400;5.494;2023-08-30T20:01:25;2.67;;;0.90;;
47896;SDS011;39629;51.400;5.494;2023-08-30T20:06:26;1.60;;;0.68;;
47896;SDS011;39629;51.400;5.494;2023-08-30T20:11:29;4.57;;;1.00;;
47896;SDS011;39629;51.400;5.494;2023-08-30T20:16:31;4.43;;;1.00;;
47896;SDS011;39629;51.400;5.494;2023-08-30T20:21:32;1.85;;;0.88;;
47896;SDS011;39629;51.400;5.494;2023-08-30T20:26:35;3.08;;;0.90;;
47896;SDS011;39629;51.400;5.494;2023-08-30T20:31:37;3.88;;;1.13;;
47896;SDS011;39629;51.400;5.494;2023-08-30T20:36:39;2.92;;;1.02;;
47896;SDS011;39629;51.400;5.494;2023-08-30T20:41:42;4.63;;;1.20;;
47896;SDS011;39629;51.400;5.494;2023-08-30T20:46:44;2.05;;;1.10;;
47896;SDS011;39629;51.400;5.494;2023-08-30T20:51:45;5.97;;;1.27;;
47896;SDS011;39629;51.400;5.494;2023-08-30T20:56:48;4.35;;;1.23;;
47896;SDS011;39629;51.400;5.494;2023-08-30T21:01:50;4.57;;;1.42;;
47896;SDS011;39629;51.400;5.494;2023-08-30T21:06:51;2.15;;;1.40;;
47896;SDS011;39629;51.400;5.494;2023-08-30T21:11:54;3.35;;;1.10;;
47896;SDS011;39629;51.400;5.494;2023-08-30T21:16:56;4.25;;;1.25;;
47896;SDS011;39629;51.400;5.494;2023-08-30T21:21:58;2.55;;;1.20;;
47896;SDS011;39629;51.400;5.494;2023-08-30T21:27:01;2.53;;;1.30;;
47896;SDS011;39629;51.400;5.494;2023-08-30T21:32:03;2.30;;;1.23;;
47896;SDS011;39629;51.400;5.494;2023-08-30T21:37:05;2.80;;;1.30;;
47896;SDS011;39629;51.400;5.494;2023-08-30T21:42:08;2.90;;;1.20;;
47896;SDS011;39629;51.400;5.494;2023-08-30T21:47:09;3.92;;;1.10;;
47896;SDS011;39629;51.400;5.494;2023-08-30T21:52:11;2.72;;;1.00;;
47896;SDS011;39629;51.400;5.494;2023-08-30T21:57:14;2.67;;;0.70;;
47896;SDS011;39629;51.400;5.494;2023-08-30T22:02:15;1.50;;;0.80;;
47896;SDS011;39629;51.400;5.494;2023-08-30T22:07:17;1.20;;;0.50;;
47896;SDS011;39629;51.400;5.494;2023-08-30T22:12:20;2.47;;;0.70;;
47896;SDS011;39629;51.400;5.494;2023-08-30T22:17:22;1.75;;;0.63;;
47896;SDS011;39629;51.400;5.494;2023-08-30T22:22:24;1.50;;;0.70;;
47896;SDS011;39629;51.400;5.494;2023-08-30T22:27:26;1.85;;;1.20;;
47896;SDS011;39629;51.400;5.494;2023-08-30T22:32:28;1.67;;;0.70;;
47896;SDS011;39629;51.400;5.494;2023-08-30T22:37:31;3.03;;;0.77;;
47896;SDS011;39629;51.400;5.494;2023-08-30T22:42:34;4.22;;;1.17;;
47896;SDS011;39629;51.400;5.494;2023-08-30T22:47:36;4.43;;;0.90;;
47896;SDS011;39629;51.400;5.494;2023-08-30T22:52:37;2.25;;;1.00;;
47896;SDS011;39629;51.400;5.494;2023-08-30T22:57:40;1.95;;;0.88;;
47896;SDS011;39629;51.400;5.494;2023-08-30T23:02:42;2.70;;;1.17;;
47896;SDS011;39629;51.400;5.494;2023-08-30T23:07:43;2.22;;;1.05;;
47896;SDS011;39629;51.400;5.494;2023-08-30T23:12:46;1.83;;;0.93;;
47896;SDS011;39629;51.400;5.494;2023-08-30T23:17:50;2.55;;;1.20;;
47896;SDS011;39629;51.400;5.494;2023-08-30T23:22:53;2.55;;;1.10;;
47896;SDS011;39629;51.400;5.494;2023-08-30T23:27:57;1.98;;;1.20;;
47896;SDS011;39629;51.400;5.494;2023-08-30T23:32:58;2.72;;;1.17;;
47896;SDS011;39629;51.400;5.494;2023-08-30T23:38:00;2.10;;;1.08;;
47896;SDS011;39629;51.400;5.494;2023-08-30T23:43:03;3.33;;;1.23;;
47896;SDS011;39629;51.400;5.494;2023-08-30T23:48:05;3.63;;;1.35;;
47896;SDS011;39629;51.400;5.494;2023-08-30T23:53:07;2.17;;;0.85;;
47896;SDS011;39629;51.400;5.494;2023-08-30T23:58:09;3.08;;;1.33;;
